Time;durP1;ratioP1;P1;durP2;ratioP2;P2;SDS_P1;SDS_P2;PMS_P1;PMS_P2;Temp;Humidity;BMP_temperature;BMP_pressure;BME280_temperature;BME280_humidity;BME280_pressure;Samples;Min_cycle;Max_cycle;Signal;HPM_P1;HPM_P2
2022/03/13 00:00:32;;;;;;;14.13;9.77;;;;;;;;;;5079121;28;20220;-76
2022/03/13 00:03:01;;;;;;;16.30;9.77;;;;;;;;;;5048672;28;20216;-76
2022/03/13 00:05:27;;;;;;;15.63;11.10;;;;;;;;;;5067979;28;20181;-77
2022/03/13 00:07:56;;;;;;;13.80;10.50;;;;;;;;;;5065497;28;20185;-76
2022/03/13 00:10:27;;;;;;;14.50;9.97;;;;;;;;;;5064292;28;20239;-76
2022/03/13 00:12:55;;;;;;;14.63;10.17;;;;;;;;;;5065629;28;20196;-76
2022/03/13 00:15:40;;;;;;;14.20;9.90;;;;;;;;;;5062059;28;20258;-76
2022/03/13 00:18:09;;;;;;;13.73;9.93;;;;;;;;;;5063531;28;20242;-76
2022/03/13 00:20:35;;;;;;;14.53;10.20;;;;;;;;;;5061868;28;20210;-76
2022/03/13 00:23:02;;;;;;;13.90;9.90;;;;;;;;;;5070414;28;20268;-76
2022/03/13 00:25:29;;;;;;;16.50;10.17;;;;;;;;;;5070965;28;20255;-77
2022/03/13 00:27:55;;;;;;;13.40;9.50;;;;;;;;;;5059658;28;20617;-76
2022/03/13 00:30:21;;;;;;;15.20;10.53;;;;;;;;;;5069664;28;20204;-77
2022/03/13 00:32:47;;;;;;;14.50;10.10;;;;;;;;;;5070023;28;20181;-76
2022/03/13 00:35:13;;;;;;;14.90;10.87;;;;;;;;;;5065906;28;20637;-76
2022/03/13 00:37:40;;;;;;;16.50;12.50;;;;;;;;;;5070025;28;20563;-76
2022/03/13 00:40:06;;;;;;;19.37;12.13;;;;;;;;;;5063176;28;20197;-77
2022/03/13 00:42:32;;;;;;;16.17;11.63;;;;;;;;;;5058188;28;20270;-76
2022/03/13 00:44:59;;;;;;;19.70;12.23;;;;;;;;;;5062278;28;20177;-76
2022/03/13 00:47:25;;;;;;;17.70;12.30;;;;;;;;;;5049359;28;20657;-75
2022/03/13 00:49:51;;;;;;;16.80;11.80;;;;;;;;;;5069442;28;20169;-75
2022/03/13 00:52:17;;;;;;;21.30;12.93;;;;;;;;;;5063046;28;20648;-78
2022/03/13 00:54:44;;;;;;;17.27;12.07;;;;;;;;;;5071448;28;20234;-78
2022/03/13 00:57:10;;;;;;;17.37;11.40;;;;;;;;;;5072355;28;20193;-78
2022/03/13 00:59:36;;;;;;;14.43;10.70;;;;;;;;;;5059819;28;20221;-77
2022/03/13 01:02:03;;;;;;;17.73;11.90;;;;;;;;;;5054764;28;20205;-78
2022/03/13 01:04:29;;;;;;;15.93;11.70;;;;;;;;;;5066989;28;20677;-78
2022/03/13 01:06:55;;;;;;;19.47;11.53;;;;;;;;;;5073277;28;20189;-78
2022/03/13 01:09:21;;;;;;;18.63;11.50;;;;;;;;;;5073662;28;20188;-78
2022/03/13 01:11:48;;;;;;;16.53;10.80;;;;;;;;;;5064724;28;20206;-77
2022/03/13 01:14:16;;;;;;;16.10;11.80;;;;;;;;;;5064395;28;20182;-78
2022/03/13 01:16:44;;;;;;;17.67;11.50;;;;;;;;;;5067952;28;20181;-78
2022/03/13 01:19:10;;;;;;;17.07;12.30;;;;;;;;;;5073386;28;20189;-77
2022/03/13 01:21:41;;;;;;;17.53;11.40;;;;;;;;;;5058854;28;20209;-78
2022/03/13 01:24:10;;;;;;;18.13;11.93;;;;;;;;;;5072272;28;20801;-78
2022/03/13 01:26:37;;;;;;;16.93;10.10;;;;;;;;;;5064131;28;20582;-76
2022/03/13 01:29:05;;;;;;;18.17;12.00;;;;;;;;;;5073756;28;20644;-75
2022/03/13 01:31:33;;;;;;;18.33;11.70;;;;;;;;;;5073616;28;20201;-75
2022/03/13 01:33:59;;;;;;;17.17;11.40;;;;;;;;;;5067932;28;20728;-75
2022/03/13 01:36:26;;;;;;;16.53;11.60;;;;;;;;;;5060326;28;20166;-77
2022/03/13 01:38:53;;;;;;;14.83;10.90;;;;;;;;;;5074025;28;20177;-75
2022/03/13 01:41:20;;;;;;;14.90;10.80;;;;;;;;;;5073322;28;20228;-77
2022/03/13 01:43:46;;;;;;;19.43;11.63;;;;;;;;;;5062293;28;20177;-77
2022/03/13 01:46:12;;;;;;;14.07;10.50;;;;;;;;;;5062853;28;20178;-78
2022/03/13 01:48:51;;;;;;;13.97;10.37;;;;;;;;;;5066043;28;20652;-77
2022/03/13 01:51:17;;;;;;;14.57;10.43;;;;;;;;;;5071913;28;20201;-78
2022/03/13 01:53:44;;;;;;;19.13;11.13;;;;;;;;;;5073624;28;20668;-77
2022/03/13 01:56:10;;;;;;;15.87;9.60;;;;;;;;;;5072816;28;20188;-78
2022/03/13 01:58:37;;;;;;;13.20;9.00;;;;;;;;;;5073430;28;20165;-77
2022/03/13 02:01:04;;;;;;;13.67;9.43;;;;;;;;;;5072053;28;20220;-78
2022/03/13 02:03:30;;;;;;;11.73;8.23;;;;;;;;;;5073514;28;20184;-78
2022/03/13 02:05:57;;;;;;;13.17;8.50;;;;;;;;;;5073910;28;20664;-77
2022/03/13 02:08:24;;;;;;;12.97;8.57;;;;;;;;;;5073579;28;20189;-78
2022/03/13 02:10:50;;;;;;;13.30;8.67;;;;;;;;;;5073499;28;20197;-78
2022/03/13 02:13:18;;;;;;;12.20;8.70;;;;;;;;;;5073260;28;20648;-77
2022/03/13 02:15:44;;;;;;;15.07;8.57;;;;;;;;;;5073561;28;20169;-78
2022/03/13 02:18:11;;;;;;;14.47;8.87;;;;;;;;;;5073472;28;20230;-77
2022/03/13 02:20:42;;;;;;;14.90;8.97;;;;;;;;;;5073426;28;20197;-78
2022/03/13 02:23:36;;;;;;;12.40;8.70;;;;;;;;;;5072556;28;20644;-75
2022/03/13 02:26:06;;;;;;;11.20;8.00;;;;;;;;;;5054748;28;20201;-76
2022/03/13 02:28:36;;;;;;;14.80;8.77;;;;;;;;;;5053763;28;20679;-75
2022/03/13 02:31:04;;;;;;;11.97;8.27;;;;;;;;;;5071676;28;20672;-75
2022/03/13 02:33:31;;;;;;;13.10;8.23;;;;;;;;;;5071470;28;20185;-75
2022/03/13 02:36:01;;;;;;;13.77;8.13;;;;;;;;;;5073046;28;20272;-75
2022/03/13 02:38:31;;;;;;;12.07;8.00;;;;;;;;;;5072045;28;20666;-76
2022/03/13 02:40:58;;;;;;;12.33;7.70;;;;;;;;;;5072956;28;20243;-75
2022/03/13 02:43:24;;;;;;;10.67;7.20;;;;;;;;;;5075832;28;20185;-75
2022/03/13 02:45:54;;;;;;;12.07;8.00;;;;;;;;;;5068779;28;20548;-75
2022/03/13 02:48:21;;;;;;;12.53;8.17;;;;;;;;;;5070460;28;20264;-76
2022/03/13 02:50:47;;;;;;;11.27;7.90;;;;;;;;;;5067893;28;20201;-75
2022/03/13 02:53:15;;;;;;;11.10;7.53;;;;;;;;;;5070698;28;20196;-76
2022/03/13 02:55:41;;;;;;;12.43;7.97;;;;;;;;;;5070448;28;20647;-75
2022/03/13 02:58:09;;;;;;;11.23;7.40;;;;;;;;;;5051602;28;20170;-76
2022/03/13 03:00:42;;;;;;;8.57;7.13;;;;;;;;;;5069776;28;20223;-76
2022/03/13 03:03:08;;;;;;;10.07;7.20;;;;;;;;;;5071866;28;20254;-77
2022/03/13 03:05:35;;;;;;;10.00;7.03;;;;;;;;;;5072008;28;20174;-76
2022/03/13 03:08:02;;;;;;;11.87;7.77;;;;;;;;;;5071765;28;20554;-76
2022/03/13 03:10:28;;;;;;;10.80;7.30;;;;;;;;;;5070523;28;20201;-76
2022/03/13 03:12:54;;;;;;;10.20;7.03;;;;;;;;;;5055350;28;20201;-76
2022/03/13 03:15:21;;;;;;;9.03;6.60;;;;;;;;;;5069918;28;20169;-76
2022/03/13 03:17:48;;;;;;;11.73;7.07;;;;;;;;;;5072270;28;20196;-76
2022/03/13 03:20:14;;;;;;;11.80;9.07;;;;;;;;;;5054614;28;20686;-76
2022/03/13 03:22:40;;;;;;;12.93;9.23;;;;;;;;;;5071596;28;20193;-76
2022/03/13 03:25:07;;;;;;;15.73;10.33;;;;;;;;;;5052318;28;20178;-76
2022/03/13 03:27:33;;;;;;;14.97;10.33;;;;;;;;;;5066284;28;20185;-76
2022/03/13 03:30:00;;;;;;;16.10;11.53;;;;;;;;;;5071917;28;20193;-76
2022/03/13 03:32:26;;;;;;;18.63;11.53;;;;;;;;;;5053863;28;20243;-76
2022/03/13 03:34:53;;;;;;;16.40;11.80;;;;;;;;;;5070845;28;20235;-76
2022/03/13 03:37:19;;;;;;;18.27;11.50;;;;;;;;;;5071866;28;20181;-76
2022/03/13 03:39:47;;;;;;;16.83;11.30;;;;;;;;;;5071547;28;20178;-76
2022/03/13 03:42:13;;;;;;;16.83;11.10;;;;;;;;;;5071014;28;20212;-76
2022/03/13 03:44:40;;;;;;;16.87;11.83;;;;;;;;;;5071955;28;20252;-76
2022/03/13 03:47:06;;;;;;;16.17;11.03;;;;;;;;;;5070634;28;20295;-76
2022/03/13 03:49:34;;;;;;;16.67;11.80;;;;;;;;;;5071179;28;20275;-76
2022/03/13 03:52:00;;;;;;;18.80;11.37;;;;;;;;;;5071038;28;20193;-76
2022/03/13 03:54:26;;;;;;;14.97;10.53;;;;;;;;;;5056831;28;20192;-76
2022/03/13 03:56:52;;;;;;;16.70;11.10;;;;;;;;;;5069779;28;20263;-76
2022/03/13 03:59:23;;;;;;;16.33;11.27;;;;;;;;;;5069814;28;20268;-76
2022/03/13 04:01:49;;;;;;;15.70;11.77;;;;;;;;;;5070564;28;20741;-76
2022/03/13 04:04:16;;;;;;;15.73;11.07;;;;;;;;;;5069626;28;20201;-76
2022/03/13 04:06:43;;;;;;;15.80;10.83;;;;;;;;;;5070574;28;20173;-76
2022/03/13 04:09:10;;;;;;;16.50;11.60;;;;;;;;;;5066741;28;20257;-76
2022/03/13 04:11:36;;;;;;;15.53;11.07;;;;;;;;;;5066669;28;20283;-76
2022/03/13 04:14:03;;;;;;;21.23;12.43;;;;;;;;;;5070377;28;20579;-76
2022/03/13 04:16:29;;;;;;;22.17;12.37;;;;;;;;;;5069617;28;20173;-76
2022/03/13 04:18:57;;;;;;;17.20;11.47;;;;;;;;;;5054197;28;20188;-76
2022/03/13 04:21:23;;;;;;;21.37;12.97;;;;;;;;;;5071104;28;20567;-76
2022/03/13 04:23:50;;;;;;;19.77;13.40;;;;;;;;;;5065821;28;20176;-77
2022/03/13 04:26:16;;;;;;;24.83;14.33;;;;;;;;;;5079982;28;20196;-76
2022/03/13 04:28:42;;;;;;;22.50;13.70;;;;;;;;;;5070116;28;20178;-77
2022/03/13 04:31:08;;;;;;;22.83;14.13;;;;;;;;;;5059062;28;20193;-76
2022/03/13 04:33:35;;;;;;;23.73;13.80;;;;;;;;;;5077838;28;20226;-76
2022/03/13 04:36:05;;;;;;;19.53;13.27;;;;;;;;;;5077623;28;20172;-76
2022/03/13 04:38:31;;;;;;;20.33;14.10;;;;;;;;;;5077769;28;20227;-76
2022/03/13 04:40:57;;;;;;;20.90;14.07;;;;;;;;;;5077329;28;20262;-76
2022/03/13 04:43:24;;;;;;;20.87;14.07;;;;;;;;;;5074412;28;20177;-76
2022/03/13 04:45:51;;;;;;;24.90;14.57;;;;;;;;;;5077658;28;20184;-76
2022/03/13 04:48:17;;;;;;;19.17;13.50;;;;;;;;;;5075912;28;22252;-76
2022/03/13 04:50:44;;;;;;;19.43;12.87;;;;;;;;;;5076382;28;20251;-76
2022/03/13 04:53:11;;;;;;;20.07;13.37;;;;;;;;;;5077126;28;20181;-76
2022/03/13 04:55:37;;;;;;;19.30;12.90;;;;;;;;;;5077401;28;20178;-76
2022/03/13 04:58:03;;;;;;;20.30;12.90;;;;;;;;;;5063772;28;20186;-76
2022/03/13 05:00:30;;;;;;;16.40;11.90;;;;;;;;;;5075831;28;20581;-76
2022/03/13 05:02:56;;;;;;;17.93;11.70;;;;;;;;;;5065232;28;20692;-76
2022/03/13 05:05:23;;;;;;;18.70;12.87;;;;;;;;;;5077572;28;20641;-76
2022/03/13 05:07:49;;;;;;;20.63;13.17;;;;;;;;;;5042431;28;20213;-76
2022/03/13 05:10:18;;;;;;;15.93;11.67;;;;;;;;;;5063111;28;20190;-76
2022/03/13 05:12:45;;;;;;;19.33;12.93;;;;;;;;;;5073733;28;20227;-76
2022/03/13 05:15:11;;;;;;;22.27;13.77;;;;;;;;;;5076407;28;20644;-76
2022/03/13 05:17:38;;;;;;;19.87;13.30;;;;;;;;;;5077297;28;20192;-76
2022/03/13 05:20:05;;;;;;;21.37;14.87;;;;;;;;;;5076502;28;20201;-76
2022/03/13 05:22:31;;;;;;;20.67;13.97;;;;;;;;;;5076664;28;20243;-76
2022/03/13 05:24:58;;;;;;;24.40;14.80;;;;;;;;;;5045403;28;20178;-76
2022/03/13 05:27:26;;;;;;;18.17;12.90;;;;;;;;;;5076109;28;20628;-76
2022/03/13 05:29:53;;;;;;;20.13;14.03;;;;;;;;;;5075786;28;20181;-76
2022/03/13 05:32:19;;;;;;;23.03;15.40;;;;;;;;;;5065215;28;20186;-76
2022/03/13 05:34:47;;;;;;;23.50;15.37;;;;;;;;;;5068734;28;20604;-76
2022/03/13 05:37:13;;;;;;;24.93;15.33;;;;;;;;;;5073248;28;20188;-76
2022/03/13 05:39:39;;;;;;;24.50;15.57;;;;;;;;;;5074239;28;20165;-76
2022/03/13 05:42:05;;;;;;;23.23;15.80;;;;;;;;;;5073364;28;20268;-76
2022/03/13 05:44:33;;;;;;;24.73;14.77;;;;;;;;;;5062360;28;20201;-76
2022/03/13 05:46:59;;;;;;;19.70;13.87;;;;;;;;;;5072726;28;20181;-76
2022/03/13 05:49:25;;;;;;;26.70;16.00;;;;;;;;;;5073565;28;20177;-76
2022/03/13 05:51:51;;;;;;;24.90;15.13;;;;;;;;;;5071896;28;20205;-76
2022/03/13 05:54:17;;;;;;;21.57;15.43;;;;;;;;;;5073585;28;20181;-76
2022/03/13 05:56:45;;;;;;;22.63;14.80;;;;;;;;;;5067487;28;20186;-76
2022/03/13 05:59:12;;;;;;;21.83;14.53;;;;;;;;;;5059573;28;20214;-76
2022/03/13 06:01:38;;;;;;;24.80;14.80;;;;;;;;;;5052043;28;20209;-76
2022/03/13 06:04:06;;;;;;;20.67;14.17;;;;;;;;;;5053950;28;20181;-76
2022/03/13 06:06:33;;;;;;;20.57;14.30;;;;;;;;;;5053646;28;20671;-76
2022/03/13 06:08:59;;;;;;;21.20;14.27;;;;;;;;;;5056874;28;20185;-76
2022/03/13 06:11:25;;;;;;;22.63;14.87;;;;;;;;;;5073134;28;20198;-76
2022/03/13 06:13:51;;;;;;;23.07;14.63;;;;;;;;;;5073342;28;20165;-76
2022/03/13 06:16:18;;;;;;;20.70;14.50;;;;;;;;;;5073887;28;20189;-77
2022/03/13 06:18:46;;;;;;;22.23;14.67;;;;;;;;;;5072679;28;20185;-76
2022/03/13 06:21:14;;;;;;;19.97;13.70;;;;;;;;;;5070399;28;20201;-76
2022/03/13 06:23:40;;;;;;;21.83;14.73;;;;;;;;;;5053277;28;20162;-76
2022/03/13 06:26:06;;;;;;;21.43;14.57;;;;;;;;;;5036565;28;20186;-76
2022/03/13 06:28:34;;;;;;;21.40;14.30;;;;;;;;;;5071906;28;20178;-76
2022/03/13 06:31:00;;;;;;;22.83;14.77;;;;;;;;;;5071639;28;20259;-76
2022/03/13 06:33:27;;;;;;;20.67;13.83;;;;;;;;;;5072595;28;20170;-76
2022/03/13 06:35:54;;;;;;;21.33;14.30;;;;;;;;;;5066964;28;20173;-76
2022/03/13 06:38:21;;;;;;;21.67;14.30;;;;;;;;;;5073076;28;20518;-76
2022/03/13 06:40:47;;;;;;;21.67;13.87;;;;;;;;;;5072475;28;20201;-76
2022/03/13 06:43:13;;;;;;;20.23;13.73;;;;;;;;;;5071955;28;20295;-76
2022/03/13 06:45:40;;;;;;;22.93;15.27;;;;;;;;;;5072309;28;20242;-76
2022/03/13 06:48:06;;;;;;;20.47;14.33;;;;;;;;;;5070456;28;20177;-76
2022/03/13 06:50:32;;;;;;;19.67;14.00;;;;;;;;;;5071326;28;20224;-75
2022/03/13 06:53:01;;;;;;;18.43;13.07;;;;;;;;;;5070559;28;20647;-75
2022/03/13 06:55:27;;;;;;;22.47;15.00;;;;;;;;;;5072691;28;20256;-75
2022/03/13 06:57:53;;;;;;;22.10;14.67;;;;;;;;;;5071917;28;20177;-75
2022/03/13 07:00:20;;;;;;;18.33;12.87;;;;;;;;;;5052861;28;20689;-75
2022/03/13 07:02:46;;;;;;;23.40;15.10;;;;;;;;;;5066996;28;20204;-75
2022/03/13 07:05:14;;;;;;;24.77;15.40;;;;;;;;;;5072094;28;20185;-75
2022/03/13 07:07:40;;;;;;;21.17;14.80;;;;;;;;;;5071626;28;20558;-75
2022/03/13 07:10:11;;;;;;;23.00;14.40;;;;;;;;;;5070473;28;20201;-76
2022/03/13 07:12:37;;;;;;;24.33;14.73;;;;;;;;;;5059285;28;20837;-75
2022/03/13 07:15:10;;;;;;;21.30;14.43;;;;;;;;;;5061250;28;20531;-76
2022/03/13 07:17:36;;;;;;;22.03;14.27;;;;;;;;;;5072300;28;20239;-76
2022/03/13 07:20:03;;;;;;;22.10;14.20;;;;;;;;;;5067813;28;20227;-79
2022/03/13 07:22:29;;;;;;;18.57;13.33;;;;;;;;;;5066314;28;20294;-78
2022/03/13 07:24:55;;;;;;;20.33;12.97;;;;;;;;;;5074447;28;20189;-79
2022/03/13 07:27:21;;;;;;;21.13;13.47;;;;;;;;;;5073236;28;20177;-78
2022/03/13 07:29:49;;;;;;;20.97;13.80;;;;;;;;;;5054001;28;20177;-76
2022/03/13 07:32:16;;;;;;;18.70;13.67;;;;;;;;;;5070422;28;20181;-77
2022/03/13 07:34:42;;;;;;;20.67;15.10;;;;;;;;;;5073173;28;20185;-78
2022/03/13 07:37:10;;;;;;;20.27;14.97;;;;;;;;;;5073441;28;20181;-77
2022/03/13 07:39:37;;;;;;;20.53;15.07;;;;;;;;;;5087495;28;20242;-77
2022/03/13 07:42:04;;;;;;;19.87;14.20;;;;;;;;;;5069907;28;20219;-77
2022/03/13 07:44:30;;;;;;;19.63;14.83;;;;;;;;;;5051518;28;20185;-77
2022/03/13 07:46:56;;;;;;;21.67;14.60;;;;;;;;;;5051563;28;20235;-77
2022/03/13 07:49:22;;;;;;;18.23;13.03;;;;;;;;;;5066644;28;20185;-77
2022/03/13 07:51:48;;;;;;;21.93;13.87;;;;;;;;;;5066278;28;20200;-77
2022/03/13 07:54:15;;;;;;;15.30;11.57;;;;;;;;;;5065510;28;20268;-77
2022/03/13 07:56:42;;;;;;;18.20;12.17;;;;;;;;;;5067736;28;20181;-77
2022/03/13 07:59:08;;;;;;;13.23;10.03;;;;;;;;;;5068760;28;20264;-77
2022/03/13 08:01:34;;;;;;;13.27;10.00;;;;;;;;;;5070496;28;20285;-77
2022/03/13 08:04:06;;;;;;;13.07;9.10;;;;;;;;;;5070761;28;20188;-77
2022/03/13 08:06:35;;;;;;;12.10;8.97;;;;;;;;;;5070215;28;20252;-78
2022/03/13 08:09:01;;;;;;;12.40;8.90;;;;;;;;;;5069633;28;20187;-78
2022/03/13 08:11:28;;;;;;;10.57;8.17;;;;;;;;;;5067706;28;20209;-78
2022/03/13 08:13:54;;;;;;;11.73;8.63;;;;;;;;;;5080979;28;20189;-78
2022/03/13 08:16:21;;;;;;;11.13;8.00;;;;;;;;;;5066171;28;20239;-78
2022/03/13 08:18:47;;;;;;;11.40;8.07;;;;;;;;;;5068289;28;20189;-78
2022/03/13 08:21:13;;;;;;;12.80;8.30;;;;;;;;;;5068861;28;20213;-78
2022/03/13 08:23:39;;;;;;;11.53;8.20;;;;;;;;;;5070259;28;20657;-77
2022/03/13 08:26:06;;;;;;;12.00;8.73;;;;;;;;;;5070602;28;20188;-77
2022/03/13 08:28:32;;;;;;;13.23;8.60;;;;;;;;;;5069188;28;20181;-77
2022/03/13 08:31:02;;;;;;;10.93;8.17;;;;;;;;;;5070717;28;20668;-77
2022/03/13 08:33:28;;;;;;;12.00;8.40;;;;;;;;;;5064317;28;20188;-78
2022/03/13 08:35:54;;;;;;;11.10;8.33;;;;;;;;;;5070579;28;20249;-78
2022/03/13 08:38:21;;;;;;;11.60;7.97;;;;;;;;;;5062437;28;20189;-78
2022/03/13 08:40:47;;;;;;;11.97;8.70;;;;;;;;;;5060812;28;20209;-78
2022/03/13 08:43:13;;;;;;;12.00;8.60;;;;;;;;;;5067703;28;20210;-78
2022/03/13 08:45:39;;;;;;;11.90;8.70;;;;;;;;;;5053330;28;20676;-78
2022/03/13 08:48:07;;;;;;;10.47;8.00;;;;;;;;;;5065088;28;20174;-77
2022/03/13 08:50:33;;;;;;;11.57;8.50;;;;;;;;;;5065055;28;20205;-78
2022/03/13 08:53:01;;;;;;;12.50;8.77;;;;;;;;;;5069036;28;20277;-78
2022/03/13 08:55:27;;;;;;;13.10;9.03;;;;;;;;;;5070495;28;20185;-78
2022/03/13 08:57:54;;;;;;;12.63;8.97;;;;;;;;;;5070833;28;20181;-78
2022/03/13 09:00:21;;;;;;;13.90;9.50;;;;;;;;;;5070218;28;20209;-78
2022/03/13 09:02:47;;;;;;;12.20;9.30;;;;;;;;;;5073004;28;20213;-77
2022/03/13 09:05:14;;;;;;;11.73;9.97;;;;;;;;;;5070614;28;20177;-77
2022/03/13 09:07:40;;;;;;;12.80;10.23;;;;;;;;;;5070610;28;20209;-77
2022/03/13 09:10:11;;;;;;;14.23;10.13;;;;;;;;;;5070763;28;20287;-78
2022/03/13 09:12:38;;;;;;;14.00;10.00;;;;;;;;;;5060007;28;20188;-78
2022/03/13 09:15:05;;;;;;;14.13;10.20;;;;;;;;;;5065126;28;20566;-78
2022/03/13 09:17:32;;;;;;;11.87;9.50;;;;;;;;;;5073085;28;20641;-77
2022/03/13 09:19:58;;;;;;;13.50;9.93;;;;;;;;;;5074702;28;20235;-78
2022/03/13 09:22:30;;;;;;;13.17;10.00;;;;;;;;;;5073481;28;20202;-78
2022/03/13 09:25:00;;;;;;;14.13;10.53;;;;;;;;;;5068812;28;20185;-78
2022/03/13 09:27:26;;;;;;;14.20;10.47;;;;;;;;;;5056756;28;20181;-78
2022/03/13 09:29:54;;;;;;;16.03;10.07;;;;;;;;;;5071099;28;20222;-78
2022/03/13 09:32:21;;;;;;;12.90;9.90;;;;;;;;;;5072877;28;20185;-78
2022/03/13 09:34:47;;;;;;;15.20;10.00;;;;;;;;;;5074261;28;20246;-78
2022/03/13 09:37:14;;;;;;;13.23;9.93;;;;;;;;;;5072996;28;20189;-77
2022/03/13 09:39:41;;;;;;;11.23;9.10;;;;;;;;;;5074381;28;20193;-77
2022/03/13 09:42:07;;;;;;;13.77;9.10;;;;;;;;;;5073092;28;20212;-77
2022/03/13 09:44:34;;;;;;;17.90;9.80;;;;;;;;;;5074193;28;20215;-77
2022/03/13 09:47:00;;;;;;;12.73;9.20;;;;;;;;;;5074200;28;20177;-77
2022/03/13 09:49:27;;;;;;;12.43;9.97;;;;;;;;;;5073890;28;20181;-77
2022/03/13 09:51:54;;;;;;;14.03;9.63;;;;;;;;;;5071939;28;20201;-78
2022/03/13 09:54:20;;;;;;;14.43;10.53;;;;;;;;;;5072553;28;20185;-77
2022/03/13 09:56:47;;;;;;;13.60;9.90;;;;;;;;;;5072776;28;20193;-77
2022/03/13 09:59:13;;;;;;;15.80;10.53;;;;;;;;;;5073550;28;20204;-78
2022/03/13 10:01:40;;;;;;;13.10;9.90;;;;;;;;;;5065393;28;20214;-78
2022/03/13 10:04:06;;;;;;;14.80;10.47;;;;;;;;;;5070472;28;20581;-78
2022/03/13 10:06:33;;;;;;;14.03;10.27;;;;;;;;;;5072346;28;20181;-78
2022/03/13 10:09:00;;;;;;;13.77;9.87;;;;;;;;;;5071999;28;20173;-78
2022/03/13 10:11:34;;;;;;;15.57;10.47;;;;;;;;;;5072285;28;20205;-77
2022/03/13 10:14:07;;;;;;;15.00;10.90;;;;;;;;;;5069038;28;20185;-79
2022/03/13 10:16:37;;;;;;;13.27;10.60;;;;;;;;;;5065951;28;20566;-80
2022/03/13 10:19:14;;;;;;;14.83;10.43;;;;;;;;;;5070930;28;20188;-80
2022/03/13 10:21:58;;;;;;;16.93;10.87;;;;;;;;;;5065740;28;20216;-78
2022/03/13 10:24:26;;;;;;;13.50;10.50;;;;;;;;;;5068143;28;20243;-77
2022/03/13 10:27:08;;;;;;;14.17;10.87;;;;;;;;;;5072438;28;20181;-78
2022/03/13 10:29:34;;;;;;;14.27;10.93;;;;;;;;;;5059640;28;20254;-78
2022/03/13 10:32:00;;;;;;;14.20;10.57;;;;;;;;;;5073626;28;20201;-80
2022/03/13 10:34:32;;;;;;;12.77;10.60;;;;;;;;;;5075517;28;20653;-80
2022/03/13 10:37:01;;;;;;;14.50;11.07;;;;;;;;;;5076916;28;20216;-80
2022/03/13 10:39:27;;;;;;;13.63;10.23;;;;;;;;;;5069243;28;20300;-80
2022/03/13 10:41:59;;;;;;;16.00;10.70;;;;;;;;;;5074414;28;20208;-79
2022/03/13 10:44:25;;;;;;;18.00;11.90;;;;;;;;;;5058040;28;20742;-80
2022/03/13 10:46:59;;;;;;;15.03;11.40;;;;;;;;;;5057010;28;20264;-79
2022/03/13 10:49:40;;;;;;;16.63;12.10;;;;;;;;;;5050138;28;20243;-79
2022/03/13 10:52:26;;;;;;;19.27;11.77;;;;;;;;;;5075143;28;20201;-79
2022/03/13 10:54:53;;;;;;;15.30;11.90;;;;;;;;;;5073733;28;20188;-80
2022/03/13 10:57:20;;;;;;;16.13;12.00;;;;;;;;;;5075232;28;20184;-79
2022/03/13 10:59:46;;;;;;;14.00;11.23;;;;;;;;;;5074190;28;20196;-79
2022/03/13 11:02:13;;;;;;;17.07;11.80;;;;;;;;;;5076756;28;20205;-79
2022/03/13 11:04:46;;;;;;;16.03;11.67;;;;;;;;;;5059496;28;20192;-79
2022/03/13 11:07:13;;;;;;;13.97;11.37;;;;;;;;;;5063665;28;20188;-80
2022/03/13 11:09:39;;;;;;;16.30;12.43;;;;;;;;;;5073710;28;20292;-79
2022/03/13 11:12:09;;;;;;;15.33;12.00;;;;;;;;;;5052968;28;20209;-80
2022/03/13 11:14:36;;;;;;;15.47;12.00;;;;;;;;;;5074507;28;20197;-80
2022/03/13 11:17:03;;;;;;;16.73;11.93;;;;;;;;;;5076402;28;20196;-80
2022/03/13 11:19:29;;;;;;;16.50;12.40;;;;;;;;;;5077520;28;20253;-80
2022/03/13 11:21:55;;;;;;;15.73;11.90;;;;;;;;;;5074978;28;20248;-80
2022/03/13 11:24:23;;;;;;;15.40;12.70;;;;;;;;;;5093820;28;20242;-80
2022/03/13 11:26:51;;;;;;;16.33;12.10;;;;;;;;;;5081883;28;20260;-80
2022/03/13 11:29:37;;;;;;;15.67;12.17;;;;;;;;;;5074280;28;20280;-80
2022/03/13 11:32:23;;;;;;;15.97;12.63;;;;;;;;;;5068461;28;20205;-80
2022/03/13 11:35:08;;;;;;;20.07;13.57;;;;;;;;;;5073380;28;20185;-80
2022/03/13 11:37:34;;;;;;;14.67;11.73;;;;;;;;;;5070984;28;20207;-80
2022/03/13 11:40:01;;;;;;;14.43;12.53;;;;;;;;;;5076144;28;20189;-81
2022/03/13 11:42:27;;;;;;;15.80;12.30;;;;;;;;;;5039169;28;20703;-78
2022/03/13 11:44:53;;;;;;;16.23;12.80;;;;;;;;;;5050408;28;20181;-79
2022/03/13 11:47:24;;;;;;;15.50;12.70;;;;;;;;;;5065289;28;20189;-81
2022/03/13 11:49:50;;;;;;;16.43;12.10;;;;;;;;;;5056711;28;20189;-81
2022/03/13 11:52:17;;;;;;;17.97;12.50;;;;;;;;;;5055712;28;20177;-80
2022/03/13 11:54:52;;;;;;;15.90;12.93;;;;;;;;;;5073260;28;20177;-79
2022/03/13 11:57:22;;;;;;;18.43;12.87;;;;;;;;;;5070706;28;20181;-79
2022/03/13 12:00:07;;;;;;;16.40;13.33;;;;;;;;;;5055214;28;20208;-78
2022/03/13 12:02:43;;;;;;;15.90;13.30;;;;;;;;;;5068709;28;20200;-80
2022/03/13 12:05:28;;;;;;;17.07;12.93;;;;;;;;;;5075938;28;20177;-80
2022/03/13 12:07:59;;;;;;;16.60;12.40;;;;;;;;;;5068165;28;20186;-80
2022/03/13 12:10:30;;;;;;;14.60;12.60;;;;;;;;;;5072695;28;20208;-80
2022/03/13 12:13:03;;;;;;;18.67;13.47;;;;;;;;;;5072403;28;20190;-79
2022/03/13 12:15:30;;;;;;;15.63;12.90;;;;;;;;;;5071449;28;20211;-79
2022/03/13 12:17:57;;;;;;;16.40;13.60;;;;;;;;;;5073819;28;20778;-79
2022/03/13 12:20:28;;;;;;;15.87;12.97;;;;;;;;;;5045645;28;20212;-79
2022/03/13 12:22:56;;;;;;;16.83;12.70;;;;;;;;;;5070653;28;20205;-79
2022/03/13 12:25:24;;;;;;;17.33;13.17;;;;;;;;;;5066206;28;20174;-79
2022/03/13 12:27:50;;;;;;;18.23;13.43;;;;;;;;;;5053684;28;20185;-79
2022/03/13 12:30:23;;;;;;;15.93;13.33;;;;;;;;;;5060365;28;20969;-79
2022/03/13 12:32:56;;;;;;;15.93;12.83;;;;;;;;;;5072799;28;20284;-79
2022/03/13 12:35:22;;;;;;;17.83;14.10;;;;;;;;;;5074796;28;20276;-79
2022/03/13 12:38:01;;;;;;;18.80;13.83;;;;;;;;;;5074160;28;20169;-80
2022/03/13 12:40:28;;;;;;;17.47;13.23;;;;;;;;;;5072182;28;20610;-79
2022/03/13 12:42:55;;;;;;;18.73;14.00;;;;;;;;;;5075905;28;20275;-80
2022/03/13 12:45:22;;;;;;;16.23;13.77;;;;;;;;;;5088866;28;20185;-80
2022/03/13 12:47:51;;;;;;;16.67;13.77;;;;;;;;;;5088272;28;20268;-80
2022/03/13 12:50:19;;;;;;;14.80;13.20;;;;;;;;;;5074429;28;20204;-79
2022/03/13 12:52:59;;;;;;;16.00;13.87;;;;;;;;;;5078470;28;20192;-85
2022/03/13 12:55:25;;;;;;;16.80;14.53;;;;;;;;;;5093932;28;20234;-80
2022/03/13 12:57:53;;;;;;;15.70;14.00;;;;;;;;;;5075077;28;20199;-80
2022/03/13 13:00:21;;;;;;;17.53;14.23;;;;;;;;;;5086567;28;20267;-80
2022/03/13 13:03:06;;;;;;;15.47;13.77;;;;;;;;;;5076686;28;20205;-80
2022/03/13 13:05:32;;;;;;;16.53;13.87;;;;;;;;;;5093609;28;20181;-80
2022/03/13 13:07:59;;;;;;;16.70;13.83;;;;;;;;;;5074590;28;20204;-80
2022/03/13 13:10:25;;;;;;;14.80;13.30;;;;;;;;;;5075481;28;20236;-80
2022/03/13 13:12:52;;;;;;;16.67;14.17;;;;;;;;;;5073532;28;20228;-80
2022/03/13 13:15:21;;;;;;;16.13;14.43;;;;;;;;;;5061264;28;20194;-79
2022/03/13 13:17:49;;;;;;;15.70;14.10;;;;;;;;;;5085087;28;20689;-80
2022/03/13 13:20:18;;;;;;;16.37;14.10;;;;;;;;;;5072791;28;20219;-80
2022/03/13 13:22:45;;;;;;;17.00;14.50;;;;;;;;;;5073040;28;20205;-80
2022/03/13 13:25:14;;;;;;;18.50;14.70;;;;;;;;;;5064198;28;20259;-80
2022/03/13 13:27:44;;;;;;;16.93;14.83;;;;;;;;;;5067602;28;20181;-80
2022/03/13 13:30:14;;;;;;;15.93;14.33;;;;;;;;;;5061405;28;20196;-80
2022/03/13 13:32:53;;;;;;;15.70;14.10;;;;;;;;;;5072680;28;20223;-80
2022/03/13 13:35:36;;;;;;;16.53;14.83;;;;;;;;;;5061048;28;20176;-80
2022/03/13 13:38:16;;;;;;;15.83;14.23;;;;;;;;;;5072453;28;20246;-80
2022/03/13 13:40:44;;;;;;;15.93;13.90;;;;;;;;;;5057945;28;20197;-80
2022/03/13 13:43:29;;;;;;;17.47;14.10;;;;;;;;;;5070009;28;20298;-80
2022/03/13 13:46:01;;;;;;;17.10;15.13;;;;;;;;;;5073143;28;20176;-80
2022/03/13 13:48:30;;;;;;;15.80;14.10;;;;;;;;;;5066261;28;20166;-80
2022/03/13 13:51:13;;;;;;;17.70;14.77;;;;;;;;;;5058189;28;20763;-80
2022/03/13 13:54:03;;;;;;;16.77;14.10;;;;;;;;;;5074030;28;20302;-80
2022/03/13 13:56:41;;;;;;;18.53;14.53;;;;;;;;;;5062172;28;20177;-80
2022/03/13 13:59:17;;;;;;;16.40;14.63;;;;;;;;;;5065344;28;20184;-80
2022/03/13 14:01:44;;;;;;;17.03;14.47;;;;;;;;;;5062746;28;20210;-80
2022/03/13 14:04:15;;;;;;;16.13;14.43;;;;;;;;;;5071912;28;20199;-80
2022/03/13 14:06:41;;;;;;;16.47;14.23;;;;;;;;;;5073967;28;20222;-80
2022/03/13 14:09:08;;;;;;;16.50;14.10;;;;;;;;;;5051939;28;20194;-80
2022/03/13 14:11:35;;;;;;;16.33;14.63;;;;;;;;;;5063291;28;20680;-80
2022/03/13 14:14:03;;;;;;;16.23;14.57;;;;;;;;;;5075274;28;20167;-79
2022/03/13 14:16:30;;;;;;;16.40;14.80;;;;;;;;;;5065865;28;20205;-80
2022/03/13 14:18:57;;;;;;;15.30;13.70;;;;;;;;;;5073250;28;20191;-80
2022/03/13 14:21:23;;;;;;;15.33;13.70;;;;;;;;;;5072574;28;20703;-80
2022/03/13 14:23:50;;;;;;;15.53;13.97;;;;;;;;;;5061334;28;20170;-80
2022/03/13 14:26:16;;;;;;;18.17;15.00;;;;;;;;;;5071154;28;20205;-80